Time;durP1;ratioP1;P1;durP2;ratioP2;P2;SDS_P1;SDS_P2;PMS_P1;PMS_P2;Temp;Humidity;BMP_temperature;BMP_pressure;BME280_temperature;BME280_humidity;BME280_pressure;Samples;Min_cycle;Max_cycle;Signal;HPM_P1;HPM_P2
2023/04/29 00:01:07;;;;;;;5.70;2.10;;;;;;;11.49;100.00;100481.35;107210;1282;58291;-83
2023/04/29 00:03:33;;;;;;;3.50;1.70;;;;;;;11.41;100.00;100485.02;107170;1282;58307;-84
2023/04/29 00:05:59;;;;;;;3.20;1.50;;;;;;;11.45;100.00;100487.61;107148;1282;60976;-84
2023/04/29 00:08:25;;;;;;;2.70;2.00;;;;;;;11.46;100.00;100494.36;107201;1282;58285;-84
2023/04/29 00:10:51;;;;;;;2.50;1.70;;;;;;;11.40;100.00;100498.03;107161;1282;59215;-84
2023/04/29 00:13:17;;;;;;;2.50;1.60;;;;;;;11.43;100.00;100500.62;107146;1282;58598;-84
2023/04/29 00:15:43;;;;;;;3.00;1.80;;;;;;;11.38;100.00;100497.25;106895;1282;58235;-84
2023/04/29 00:18:09;;;;;;;3.10;1.60;;;;;;;11.39;100.00;100493.71;106929;1283;58246;-84
2023/04/29 00:20:36;;;;;;;3.20;1.80;;;;;;;11.41;100.00;100491.06;106730;1283;58386;-84
2023/04/29 00:23:02;;;;;;;2.70;1.70;;;;;;;11.43;100.00;100491.55;107156;1282;58226;-85
2023/04/29 00:25:29;;;;;;;3.60;1.90;;;;;;;11.45;100.00;100491.88;106714;1282;58514;-85
2023/04/29 00:27:58;;;;;;;2.70;1.80;;;;;;;11.47;100.00;100492.48;107163;1282;58249;-85
2023/04/29 00:30:24;;;;;;;2.40;1.60;;;;;;;11.44;100.00;100492.09;106749;1283;61095;-84
2023/04/29 00:32:49;;;;;;;2.40;1.60;;;;;;;11.46;100.00;100489.52;106946;1285;58219;-84
2023/04/29 00:35:15;;;;;;;2.50;1.60;;;;;;;11.50;100.00;100488.96;107219;1282;58277;-85
2023/04/29 00:37:41;;;;;;;3.50;1.80;;;;;;;11.50;100.00;100486.47;107128;1282;58264;-84
2023/04/29 00:40:07;;;;;;;3.20;1.70;;;;;;;11.53;100.00;100482.48;107195;1282;58230;-84
2023/04/29 00:42:33;;;;;;;2.10;1.60;;;;;;;11.55;100.00;100483.89;107177;1282;59981;-84
2023/04/29 00:44:59;;;;;;;4.60;1.80;;;;;;;11.53;100.00;100483.08;107189;1282;58170;-84
2023/04/29 00:47:24;;;;;;;2.10;1.60;;;;;;;11.51;100.00;100487.17;107205;1282;58296;-84
2023/04/29 00:49:50;;;;;;;4.40;1.80;;;;;;;11.54;100.00;100484.80;106666;1283;59254;-84
2023/04/29 00:52:17;;;;;;;2.50;1.70;;;;;;;11.55;100.00;100483.73;106819;1283;58624;-84
2023/04/29 00:54:43;;;;;;;2.90;1.90;;;;;;;11.57;100.00;100486.42;106672;1283;58219;-83
2023/04/29 00:57:09;;;;;;;2.90;1.80;;;;;;;11.56;100.00;100487.46;107111;1282;58525;-84
2023/04/29 00:59:35;;;;;;;3.10;1.90;;;;;;;11.50;100.00;100489.45;106663;1283;58358;-84
2023/04/29 01:02:02;;;;;;;2.80;1.50;;;;;;;11.39;100.00;100486.25;106690;1283;60113;-84
2023/04/29 01:04:31;;;;;;;5.00;1.50;;;;;;;11.34;100.00;100482.74;107138;1282;59213;-84
2023/04/29 01:06:59;;;;;;;2.70;1.60;;;;;;;11.34;100.00;100481.13;107198;1282;73906;-84
2023/04/29 01:09:47;;;;;;;2.70;1.70;;;;;;;11.32;100.00;100484.91;106771;1282;73661;-84
2023/04/29 01:12:31;;;;;;;5.30;1.70;;;;;;;11.31;100.00;100489.86;107121;1282;72417;-85
2023/04/29 01:15:09;;;;;;;2.10;1.60;;;;;;;11.21;100.00;100490.36;107156;1282;60912;-84
2023/04/29 01:17:40;;;;;;;2.30;1.50;;;;;;;11.19;100.00;100493.22;106934;1282;61159;-84
2023/04/29 01:20:07;;;;;;;2.90;2.00;;;;;;;11.20;100.00;100497.77;107109;1282;73893;-84
2023/04/29 01:22:33;;;;;;;4.40;2.50;;;;;;;11.15;100.00;100501.04;106808;1282;73939;-84
2023/04/29 01:24:58;;;;;;;4.40;2.50;;;;;;;11.11;100.00;100505.88;107138;1282;58279;-83
2023/04/29 01:27:41;;;;;;;5.10;2.40;;;;;;;11.12;100.00;100506.70;107122;1282;58259;-84
2023/04/29 01:30:16;;;;;;;4.80;2.50;;;;;;;11.11;100.00;100510.30;107161;1282;60194;-84
2023/04/29 01:32:59;;;;;;;3.70;1.90;;;;;;;11.12;100.00;100515.60;107127;1282;75021;-84
2023/04/29 01:35:34;;;;;;;5.10;2.20;;;;;;;11.18;100.00;100518.04;107102;1282;73277;-84
2023/04/29 01:38:15;;;;;;;3.30;2.00;;;;;;;11.15;100.00;100519.66;107146;1282;73311;-83
2023/04/29 01:40:58;;;;;;;3.60;2.10;;;;;;;11.14;100.00;100516.04;106648;1283;59660;-83
2023/04/29 01:43:27;;;;;;;3.90;2.10;;;;;;;11.15;100.00;100524.84;106805;1283;60253;-83
2023/04/29 01:45:56;;;;;;;3.50;2.00;;;;;;;11.16;100.00;100526.67;107116;1282;73585;-83
2023/04/29 01:48:23;;;;;;;3.50;1.90;;;;;;;11.11;100.00;100520.73;107128;1283;74372;-84
2023/04/29 01:50:49;;;;;;;4.50;1.90;;;;;;;11.09;100.00;100519.48;107122;1282;72695;-83
2023/04/29 01:53:14;;;;;;;2.70;1.80;;;;;;;11.09;100.00;100521.42;106928;1282;58274;-83
2023/04/29 01:55:40;;;;;;;3.20;2.00;;;;;;;11.07;100.00;100521.84;106601;1283;58461;-83
2023/04/29 01:58:06;;;;;;;2.00;1.70;;;;;;;11.04;100.00;100521.23;107143;1282;58314;-84
2023/04/29 02:00:31;;;;;;;4.20;2.00;;;;;;;11.03;100.00;100518.36;107108;1282;58222;-84
2023/04/29 02:02:56;;;;;;;2.70;1.80;;;;;;;11.05;100.00;100518.91;107199;1282;58376;-84
2023/04/29 02:05:22;;;;;;;3.80;2.40;;;;;;;10.97;100.00;100518.14;106645;1283;58773;-85
2023/04/29 02:07:47;;;;;;;3.60;2.30;;;;;;;10.94;100.00;100512.95;107170;1282;58239;-85
2023/04/29 02:10:13;;;;;;;2.30;1.80;;;;;;;11.01;100.00;100519.29;106780;1283;59353;-85
2023/04/29 02:12:39;;;;;;;6.60;2.30;;;;;;;11.00;100.00;100518.42;107130;1282;58527;-85
2023/04/29 02:15:05;;;;;;;4.20;2.40;;;;;;;10.99;100.00;100520.36;106831;1283;58315;-84
2023/04/29 02:17:33;;;;;;;3.70;2.10;;;;;;;11.02;100.00;100525.76;106589;1282;58237;-85
2023/04/29 02:19:58;;;;;;;4.90;2.20;;;;;;;11.01;100.00;100527.42;107145;1282;74095;-85
2023/04/29 02:22:24;;;;;;;4.10;2.30;;;;;;;11.00;100.00;100526.98;107135;1282;58282;-85
2023/04/29 02:24:49;;;;;;;5.40;2.20;;;;;;;11.01;100.00;100524.35;107118;1283;58451;-84
2023/04/29 02:27:15;;;;;;;5.20;2.30;;;;;;;11.04;100.00;100524.52;106721;1283;58411;-85
2023/04/29 02:29:40;;;;;;;7.70;2.80;;;;;;;11.04;100.00;100528.23;107184;1282;58308;-84
2023/04/29 02:32:06;;;;;;;5.80;3.00;;;;;;;11.02;100.00;100529.20;106587;1282;58320;-84
2023/04/29 02:34:32;;;;;;;3.90;2.70;;;;;;;11.04;100.00;100530.94;107106;1282;58478;-84
2023/04/29 02:36:57;;;;;;;5.40;2.20;;;;;;;11.00;100.00;100539.35;107189;1282;58253;-85
2023/04/29 02:39:23;;;;;;;3.90;2.60;;;;;;;10.95;100.00;100543.09;107140;1282;58318;-84
2023/04/29 02:41:49;;;;;;;5.50;2.90;;;;;;;10.93;100.00;100548.91;106738;1283;58651;-84
2023/04/29 02:44:14;;;;;;;4.40;2.60;;;;;;;10.94;100.00;100551.08;106823;1285;58588;-84
2023/04/29 02:46:44;;;;;;;5.00;2.70;;;;;;;10.92;100.00;100550.52;107208;1282;58226;-84
2023/04/29 02:49:09;;;;;;;5.70;2.80;;;;;;;10.86;100.00;100550.07;107127;1282;74681;-84
2023/04/29 02:51:35;;;;;;;4.90;2.80;;;;;;;10.86;100.00;100550.71;107170;1282;58283;-84
2023/04/29 02:54:01;;;;;;;6.30;3.00;;;;;;;10.89;100.00;100548.66;107133;1282;58139;-84
2023/04/29 02:56:26;;;;;;;6.40;3.40;;;;;;;10.92;100.00;100547.35;106814;1282;58671;-83
2023/04/29 02:58:52;;;;;;;9.60;3.60;;;;;;;10.96;100.00;100551.84;106941;1282;58366;-83
2023/04/29 03:01:17;;;;;;;8.00;3.00;;;;;;;10.95;100.00;100550.64;107214;1282;58367;-83
2023/04/29 03:03:43;;;;;;;5.70;3.00;;;;;;;10.95;100.00;100550.05;107124;1282;58172;-83
2023/04/29 03:06:08;;;;;;;4.30;2.70;;;;;;;10.99;100.00;100555.19;107181;1282;58173;-83
2023/04/29 03:08:34;;;;;;;9.60;3.10;;;;;;;10.97;100.00;100556.27;107184;1282;58262;-83
2023/04/29 03:11:00;;;;;;;4.30;2.30;;;;;;;10.93;100.00;100555.59;107150;1282;58281;-83
2023/04/29 03:13:25;;;;;;;4.40;2.40;;;;;;;10.94;100.00;100553.77;107191;1282;58431;-83
2023/04/29 03:15:51;;;;;;;5.50;2.90;;;;;;;10.97;100.00;100556.20;107168;1282;61832;-83
2023/04/29 03:18:16;;;;;;;3.20;2.20;;;;;;;10.98;100.00;100553.02;107140;1283;58311;-83
2023/04/29 03:20:42;;;;;;;3.70;2.20;;;;;;;10.91;100.00;100555.80;107179;1282;58165;-83
2023/04/29 03:23:07;;;;;;;4.80;2.60;;;;;;;10.85;100.00;100553.14;107149;1282;58298;-83
2023/04/29 03:25:33;;;;;;;4.80;1.90;;;;;;;10.87;100.00;100550.12;107177;1282;58493;-83
2023/04/29 03:27:59;;;;;;;4.70;2.10;;;;;;;10.86;100.00;100542.15;107152;1282;60994;-83
2023/04/29 03:30:24;;;;;;;4.60;2.10;;;;;;;10.83;100.00;100543.64;107136;1282;58517;-83
2023/04/29 03:32:50;;;;;;;2.40;1.60;;;;;;;10.73;100.00;100546.88;107173;1282;58488;-83
2023/04/29 03:35:15;;;;;;;3.70;1.90;;;;;;;10.68;100.00;100551.91;107136;1282;58318;-83
2023/04/29 03:37:43;;;;;;;4.10;1.90;;;;;;;10.67;100.00;100551.92;106625;1283;58306;-83
2023/04/29 03:40:09;;;;;;;3.50;1.80;;;;;;;10.66;100.00;100553.52;107132;1282;74638;-83
2023/04/29 03:42:34;;;;;;;2.10;1.70;;;;;;;10.66;100.00;100547.16;107154;1282;58253;-82
2023/04/29 03:45:00;;;;;;;3.60;1.80;;;;;;;10.66;100.00;100543.02;107147;1282;58188;-83
2023/04/29 03:47:26;;;;;;;4.30;1.90;;;;;;;10.68;100.00;100539.73;106748;1283;58386;-82
2023/04/29 03:49:52;;;;;;;4.20;1.70;;;;;;;10.68;100.00;100536.45;107171;1282;58233;-83
2023/04/29 03:52:17;;;;;;;2.10;1.50;;;;;;;10.66;100.00;100540.20;107185;1282;58253;-83
2023/04/29 03:54:43;;;;;;;2.10;1.50;;;;;;;10.67;100.00;100540.38;107187;1282;58411;-82
2023/04/29 03:57:08;;;;;;;3.30;1.70;;;;;;;10.66;100.00;100546.67;107152;1282;58263;-82
2023/04/29 03:59:34;;;;;;;2.80;1.80;;;;;;;10.73;100.00;100549.73;106878;1283;58290;-82
2023/04/29 04:01:59;;;;;;;2.20;1.80;;;;;;;10.74;100.00;100551.95;107142;1282;58502;-82
2023/04/29 04:04:25;;;;;;;2.20;1.60;;;;;;;10.71;100.00;100555.38;107133;1282;58346;-83
2023/04/29 04:06:51;;;;;;;3.10;1.80;;;;;;;10.71;100.00;100554.94;107163;1282;58213;-82
2023/04/29 04:09:19;;;;;;;2.20;1.50;;;;;;;10.70;100.00;100553.55;107142;1282;58119;-82
2023/04/29 04:11:45;;;;;;;2.20;1.50;;;;;;;10.77;100.00;100549.38;106742;1283;73682;-82
2023/04/29 04:14:11;;;;;;;3.40;1.70;;;;;;;10.79;100.00;100552.56;107136;1282;58375;-82
2023/04/29 04:16:36;;;;;;;2.30;1.80;;;;;;;10.78;100.00;100555.69;107135;1282;58225;-82
2023/04/29 04:19:02;;;;;;;3.00;1.90;;;;;;;10.76;100.00;100556.33;107116;1282;59082;-82
2023/04/29 04:21:28;;;;;;;3.10;2.00;;;;;;;10.73;100.00;100560.79;107105;1282;58244;-82
2023/04/29 04:23:55;;;;;;;4.40;1.80;;;;;;;10.76;100.00;100567.70;106812;1283;58333;-82
2023/04/29 04:29:41;;;;;;;1.80;1.40;;;;;;;10.82;100.00;100572.20;106747;1285;60761;-82
2023/04/29 04:32:07;;;;;;;1.60;1.20;;;;;;;10.83;100.00;100571.07;106779;1285;58590;-82
2023/04/29 04:34:32;;;;;;;2.80;1.40;;;;;;;10.84;100.00;100572.27;106750;1285;58424;-82
2023/04/29 04:36:58;;;;;;;4.80;1.60;;;;;;;10.83;100.00;100576.41;106819;1285;59235;-82
2023/04/29 04:39:23;;;;;;;2.30;1.70;;;;;;;10.82;100.00;100578.14;106786;1285;58374;-82
2023/04/29 04:41:52;;;;;;;3.10;1.60;;;;;;;10.80;100.00;100577.00;106531;1286;59094;-82
2023/04/29 04:44:18;;;;;;;1.90;1.50;;;;;;;10.83;100.00;100579.71;106765;1285;73398;-82
2023/04/29 04:46:43;;;;;;;3.10;1.50;;;;;;;10.81;100.00;100583.35;106789;1285;58395;-82
2023/04/29 04:49:09;;;;;;;3.90;1.50;;;;;;;10.79;100.00;100585.35;106771;1285;58381;-82
2023/04/29 04:51:34;;;;;;;2.00;1.30;;;;;;;10.75;100.00;100589.27;106699;1286;58310;-83
2023/04/29 04:54:00;;;;;;;1.50;1.10;;;;;;;10.76;100.00;100593.25;106683;1286;58388;-82
2023/04/29 04:56:25;;;;;;;2.20;1.40;;;;;;;10.78;100.00;100594.88;106735;1285;74463;-83
2023/04/29 04:58:51;;;;;;;3.30;1.30;;;;;;;10.79;100.00;100598.34;107165;1282;58220;-82
2023/04/29 05:01:16;;;;;;;3.10;1.40;;;;;;;10.84;100.00;100595.99;106813;1283;58653;-83
2023/04/29 05:03:42;;;;;;;3.80;1.10;;;;;;;10.83;100.00;100604.94;107205;1282;58286;-83
2023/04/29 05:06:07;;;;;;;2.20;1.20;;;;;;;10.85;100.00;100599.40;107206;1282;58400;-83
2023/04/29 05:08:33;;;;;;;1.50;1.20;;;;;;;10.86;100.00;100599.84;107147;1282;58403;-82
2023/04/29 05:10:58;;;;;;;2.50;1.40;;;;;;;10.82;100.00;100595.06;106846;1283;58305;-83
2023/04/29 05:13:24;;;;;;;2.10;1.20;;;;;;;10.83;100.00;100596.48;107178;1282;58341;-83
2023/04/29 05:15:53;;;;;;;2.50;1.10;;;;;;;10.83;100.00;100598.79;106516;1283;58290;-82
2023/04/29 05:18:18;;;;;;;2.20;1.10;;;;;;;10.89;100.00;100596.23;106625;1283;58589;-83
2023/04/29 05:20:44;;;;;;;6.10;1.30;;;;;;;10.88;100.00;100594.71;106715;1283;58552;-82
2023/04/29 05:23:09;;;;;;;1.30;1.00;;;;;;;10.89;100.00;100595.98;107136;1282;58204;-82
2023/04/29 05:25:35;;;;;;;2.20;1.30;;;;;;;10.94;100.00;100594.05;106596;1283;58630;-82
2023/04/29 05:28:03;;;;;;;3.50;1.40;;;;;;;10.96;100.00;100594.23;107215;1282;58190;-83
2023/04/29 05:30:29;;;;;;;3.00;1.10;;;;;;;11.02;100.00;100595.00;107088;1283;73493;-82
2023/04/29 05:32:55;;;;;;;1.30;1.10;;;;;;;11.09;100.00;100598.05;106904;1283;58388;-82
2023/04/29 05:35:21;;;;;;;3.00;1.20;;;;;;;11.10;100.00;100603.73;107091;1282;58157;-82
2023/04/29 05:37:46;;;;;;;1.80;1.40;;;;;;;11.14;100.00;100601.96;107118;1282;58260;-82
2023/04/29 05:40:12;;;;;;;1.90;1.20;;;;;;;11.22;100.00;100608.95;106778;1283;58285;-82
2023/04/29 05:42:37;;;;;;;4.70;1.20;;;;;;;11.24;100.00;100610.80;106844;1282;59245;-82
2023/04/29 05:45:03;;;;;;;5.00;1.30;;;;;;;11.28;100.00;100612.27;107126;1282;61400;-82
2023/04/29 05:47:28;;;;;;;1.80;1.10;;;;;;;11.28;100.00;100609.25;107094;1282;58329;-82
2023/04/29 05:49:54;;;;;;;3.70;1.70;;;;;;;11.30;100.00;100610.50;107140;1282;58611;-82
2023/04/29 05:52:19;;;;;;;3.50;1.50;;;;;;;11.31;100.00;100608.02;107148;1282;58214;-82
2023/04/29 05:54:45;;;;;;;4.90;1.50;;;;;;;11.36;100.00;100608.09;107147;1282;59117;-82
2023/04/29 05:57:10;;;;;;;1.70;1.30;;;;;;;11.35;100.00;100611.27;107073;1283;73577;-82
2023/04/29 05:59:36;;;;;;;2.00;1.20;;;;;;;11.35;100.00;100611.77;107105;1282;58349;-82
2023/04/29 06:02:01;;;;;;;1.80;1.20;;;;;;;11.45;100.00;100616.27;107076;1282;58262;-82
2023/04/29 06:04:27;;;;;;;3.80;1.30;;;;;;;11.49;100.00;100618.81;107132;1283;58558;-82
2023/04/29 06:06:55;;;;;;;1.70;1.20;;;;;;;11.38;100.00;100622.18;107176;1282;58234;-82
2023/04/29 06:09:24;;;;;;;3.20;1.60;;;;;;;11.34;100.00;100633.94;107082;1282;74636;-83
2023/04/29 06:11:50;;;;;;;4.40;1.10;;;;;;;11.34;100.00;100639.55;107097;1282;72539;-82
2023/04/29 06:14:16;;;;;;;2.20;1.20;;;;;;;11.41;100.00;100649.08;107095;1282;58242;-83
2023/04/29 06:16:41;;;;;;;2.50;1.30;;;;;;;11.39;100.00;100648.58;107149;1283;58312;-83
2023/04/29 06:19:07;;;;;;;5.50;1.40;;;;;;;11.42;100.00;100646.23;107132;1282;58453;-83
2023/04/29 06:21:32;;;;;;;2.20;1.30;;;;;;;11.52;100.00;100649.06;106889;1283;58713;-83
2023/04/29 06:23:58;;;;;;;1.90;1.30;;;;;;;11.51;100.00;100645.06;107148;1283;58227;-83
2023/04/29 06:26:24;;;;;;;1.90;1.40;;;;;;;11.52;100.00;100655.30;107100;1282;58211;-83
2023/04/29 06:28:49;;;;;;;2.00;1.30;;;;;;;11.55;100.00;100660.77;107149;1282;58320;-83
2023/04/29 06:31:15;;;;;;;4.60;1.60;;;;;;;11.45;100.00;100659.34;106891;1283;58234;-83
2023/04/29 06:33:41;;;;;;;3.00;1.30;;;;;;;11.48;100.00;100650.98;107103;1282;59139;-83
2023/04/29 06:36:07;;;;;;;4.10;1.50;;;;;;;11.53;100.00;100647.27;107095;1282;58241;-83
2023/04/29 06:38:33;;;;;;;5.00;1.40;;;;;;;11.69;100.00;100646.68;107176;1282;58277;-83
2023/04/29 06:41:02;;;;;;;4.50;1.70;;;;;;;11.72;100.00;100647.34;106872;1283;73488;-83
2023/04/29 06:43:27;;;;;;;2.90;1.80;;;;;;;11.76;100.00;100648.54;106611;1283;72769;-83
2023/04/29 06:45:53;;;;;;;2.20;1.50;;;;;;;11.79;100.00;100650.05;106890;1283;58273;-83
2023/04/29 06:48:18;;;;;;;5.40;1.90;;;;;;;11.79;100.00;100648.94;107135;1282;58264;-83
2023/04/29 06:50:54;;;;;;;2.20;1.50;;;;;;;11.89;100.00;100647.95;106809;1283;58764;-84
2023/04/29 06:53:21;;;;;;;2.60;1.80;;;;;;;12.01;100.00;100651.54;107145;1282;73287;-84
2023/04/29 06:55:47;;;;;;;3.10;2.00;;;;;;;12.01;100.00;100658.30;107039;1283;58181;-84
2023/04/29 06:58:13;;;;;;;3.40;2.20;;;;;;;12.09;100.00;100668.36;106874;1283;58192;-83
2023/04/29 07:00:39;;;;;;;4.30;1.70;;;;;;;12.18;100.00;100673.23;107113;1282;58261;-84
2023/04/29 07:03:09;;;;;;;3.30;2.30;;;;;;;12.20;100.00;100685.66;106738;1283;58436;-83
2023/04/29 07:05:35;;;;;;;5.40;2.70;;;;;;;12.23;100.00;100692.24;107100;1283;73614;-83
2023/04/29 07:08:01;;;;;;;2.70;2.10;;;;;;;12.32;100.00;100692.81;107096;1282;58516;-83
2023/04/29 07:10:26;;;;;;;3.90;2.20;;;;;;;12.41;100.00;100694.37;106891;1283;58174;-84
2023/04/29 07:12:55;;;;;;;8.50;2.90;;;;;;;12.48;100.00;100697.41;107140;1282;58382;-85
2023/04/29 07:15:21;;;;;;;5.10;3.00;;;;;;;12.50;100.00;100697.91;106904;1283;58366;-84
2023/04/29 07:17:50;;;;;;;10.30;3.70;;;;;;;12.48;100.00;100695.35;107145;1282;58222;-84
2023/04/29 07:20:15;;;;;;;7.20;3.60;;;;;;;12.51;100.00;100695.58;107062;1283;73358;-84
2023/04/29 07:22:41;;;;;;;5.70;4.00;;;;;;;12.59;100.00;100697.42;107105;1283;58275;-84
2023/04/29 07:25:07;;;;;;;6.70;3.90;;;;;;;12.68;100.00;100696.65;106813;1283;58279;-84
2023/04/29 07:27:34;;;;;;;6.20;3.70;;;;;;;12.73;100.00;100701.95;106760;1283;58231;-84
2023/04/29 07:30:00;;;;;;;9.80;3.90;;;;;;;12.73;100.00;100704.66;106921;1283;58298;-84
2023/04/29 07:32:26;;;;;;;7.20;3.90;;;;;;;12.65;100.00;100705.52;107094;1282;58196;-85
2023/04/29 07:34:52;;;;;;;6.20;4.00;;;;;;;12.65;100.00;100706.88;107094;1283;58149;-84
2023/04/29 07:37:18;;;;;;;6.90;4.10;;;;;;;12.75;100.00;100703.24;106600;1283;58452;-84
2023/04/29 07:39:43;;;;;;;5.40;3.80;;;;;;;12.76;100.00;100712.77;107216;1283;58244;-84
2023/04/29 07:42:09;;;;;;;6.30;4.20;;;;;;;12.78;100.00;100718.12;107121;1282;58598;-85
2023/04/29 07:44:35;;;;;;;7.20;4.40;;;;;;;12.72;100.00;100714.45;107166;1283;58555;-84
2023/04/29 07:47:01;;;;;;;7.50;4.50;;;;;;;12.78;100.00;100713.36;107134;1283;58364;-84
2023/04/29 07:49:26;;;;;;;7.20;4.30;;;;;;;12.85;100.00;100711.85;107133;1282;58292;-83
2023/04/29 07:51:52;;;;;;;5.90;4.20;;;;;;;12.93;100.00;100715.45;106799;1282;58337;-84
2023/04/29 07:54:18;;;;;;;8.90;4.80;;;;;;;12.92;100.00;100718.80;106814;1283;59121;-84
2023/04/29 07:56:47;;;;;;;7.90;5.00;;;;;;;12.92;100.00;100715.67;107156;1283;60175;-84
2023/04/29 07:59:13;;;;;;;9.00;4.50;;;;;;;12.92;100.00;100712.54;107072;1282;74591;-84
2023/04/29 08:01:40;;;;;;;7.00;4.20;;;;;;;12.90;100.00;100709.13;106888;1283;58298;-85
2023/04/29 08:04:06;;;;;;;10.40;3.80;;;;;;;12.91;100.00;100708.27;107098;1282;58283;-84
2023/04/29 08:06:32;;;;;;;9.20;4.30;;;;;;;12.97;100.00;100699.28;107106;1282;58185;-85
2023/04/29 08:08:58;;;;;;;8.50;4.70;;;;;;;12.99;100.00;100696.58;107148;1286;58209;-85
2023/04/29 08:11:25;;;;;;;10.60;6.00;;;;;;;12.96;100.00;100693.44;107148;1282;58248;-85
2023/04/29 08:13:51;;;;;;;10.20;6.00;;;;;;;12.95;100.00;100689.38;107115;1283;58214;-84
2023/04/29 08:16:16;;;;;;;12.10;6.70;;;;;;;12.90;100.00;100689.00;106559;1283;58409;-85
2023/04/29 08:18:42;;;;;;;13.10;6.50;;;;;;;12.96;100.00;100688.30;106861;1288;58482;-85
2023/04/29 08:21:10;;;;;;;14.00;7.20;;;;;;;13.04;100.00;100680.86;107174;1282;58306;-85
2023/04/29 08:23:36;;;;;;;10.70;5.20;;;;;;;13.09;100.00;100679.83;107162;1283;73729;-85
2023/04/29 08:26:02;;;;;;;6.20;3.90;;;;;;;13.17;100.00;100681.05;106875;1283;58249;-85
2023/04/29 08:28:28;;;;;;;8.10;4.30;;;;;;;13.21;100.00;100678.98;107112;1283;58266;-85
2023/04/29 08:30:54;;;;;;;7.60;4.30;;;;;;;13.32;100.00;100679.80;106739;1283;58342;-86
2023/04/29 08:33:20;;;;;;;6.60;4.20;;;;;;;13.42;100.00;100682.36;106942;1285;58234;-85
2023/04/29 08:35:45;;;;;;;11.20;4.90;;;;;;;13.44;100.00;100683.38;107160;1283;58236;-86
2023/04/29 08:38:11;;;;;;;9.00;4.00;;;;;;;13.43;100.00;100679.86;107148;1283;58283;-85
2023/04/29 08:40:41;;;;;;;6.80;3.80;;;;;;;13.32;100.00;100673.34;107133;1283;60085;-85
2023/04/29 08:43:08;;;;;;;7.00;3.90;;;;;;;13.34;100.00;100676.53;107146;1282;73693;-84
2023/04/29 08:45:35;;;;;;;6.00;3.30;;;;;;;13.36;100.00;100673.77;106740;1283;72101;-86
2023/04/29 08:48:06;;;;;;;8.30;3.20;;;;;;;13.41;100.00;100675.97;107088;1283;73625;-85
2023/04/29 08:50:38;;;;;;;3.70;2.40;;;;;;;13.60;100.00;100670.69;107106;1282;62808;-86
2023/04/29 08:53:05;;;;;;;4.70;2.90;;;;;;;13.76;100.00;100667.73;107110;1287;60890;-86
2023/04/29 08:55:32;;;;;;;5.20;2.90;;;;;;;13.93;100.00;100662.34;107128;1283;74759;-86
2023/04/29 08:57:57;;;;;;;6.20;2.50;;;;;;;14.01;100.00;100664.45;106864;1287;73172;-86
2023/04/29 09:00:23;;;;;;;6.20;2.60;;;;;;;14.09;100.00;100664.66;107160;1283;58833;-87
2023/04/29 09:02:52;;;;;;;3.10;1.70;;;;;;;14.12;100.00;100669.09;107157;1283;58269;-86
2023/04/29 09:05:18;;;;;;;5.00;1.80;;;;;;;14.13;100.00;100669.58;106683;1283;60027;-86
2023/04/29 09:07:45;;;;;;;6.00;1.90;;;;;;;14.15;100.00;100673.95;107187;1283;58268;-86
2023/04/29 09:10:11;;;;;;;4.60;2.00;;;;;;;14.13;100.00;100671.42;107167;1283;58450;-86
2023/04/29 09:12:36;;;;;;;5.00;1.50;;;;;;;14.00;100.00;100674.48;107136;1283;58489;-87
2023/04/29 09:15:03;;;;;;;3.90;1.90;;;;;;;14.01;100.00;100675.35;106578;1282;58259;-87
2023/04/29 09:17:41;;;;;;;4.50;2.30;;;;;;;14.10;100.00;100674.86;107182;1283;58263;-87
2023/04/29 09:20:19;;;;;;;4.00;2.70;;;;;;;14.09;100.00;100671.89;107128;1282;74785;-87
2023/04/29 09:22:56;;;;;;;5.50;2.60;;;;;;;14.04;100.00;100668.71;107163;1283;74409;-87
2023/04/29 09:25:22;;;;;;;6.00;2.40;;;;;;;14.02;100.00;100669.81;107155;1282;73251;-87
2023/04/29 09:27:48;;;;;;;3.10;2.20;;;;;;;13.92;100.00;100666.52;106891;1285;58208;-86
2023/04/29 09:30:15;;;;;;;2.50;1.80;;;;;;;13.83;100.00;100665.80;106835;1283;58320;-87
2023/04/29 09:32:42;;;;;;;4.90;2.10;;;;;;;13.72;100.00;100663.05;107160;1283;58313;-87
2023/04/29 09:35:25;;;;;;;3.00;1.60;;;;;;;13.65;100.00;100663.69;107122;1282;58311;-87
2023/04/29 09:37:53;;;;;;;4.20;2.10;;;;;;;13.57;100.00;100667.02;106754;1286;73726;-87
2023/04/29 09:40:32;;;;;;;5.70;1.80;;;;;;;13.52;100.00;100672.52;107103;1283;61630;-86
2023/04/29 09:42:58;;;;;;;7.90;2.30;;;;;;;13.48;100.00;100676.17;106841;1287;60360;-87
2023/04/29 09:45:38;;;;;;;4.20;1.90;;;;;;;13.44;100.00;100678.99;106743;1283;58586;-86
2023/04/29 09:48:05;;;;;;;5.60;2.10;;;;;;;13.32;100.00;100676.86;107143;1282;74417;-87
2023/04/29 09:50:37;;;;;;;2.30;1.70;;;;;;;13.24;100.00;100673.79;106630;1283;72403;-87
2023/04/29 09:53:04;;;;;;;4.30;1.60;;;;;;;13.25;100.00;100668.33;107076;1282;62811;-87
2023/04/29 09:55:30;;;;;;;3.50;1.90;;;;;;;13.26;100.00;100672.06;107137;1283;59928;-88
2023/04/29 09:57:57;;;;;;;5.60;2.70;;;;;;;13.25;100.00;100671.95;107147;1282;58249;-87
2023/04/29 10:00:24;;;;;;;5.70;3.50;;;;;;;13.19;100.00;100671.59;106933;1283;58262;-87
2023/04/29 10:02:52;;;;;;;5.40;3.40;;;;;;;13.15;100.00;100665.80;107143;1282;72387;-87
2023/04/29 10:05:18;;;;;;;9.10;4.80;;;;;;;13.16;100.00;100663.63;107110;1282;62745;-88
2023/04/29 10:07:46;;;;;;;6.50;4.20;;;;;;;13.18;100.00;100665.14;106877;1288;58187;-88
2023/04/29 10:10:12;;;;;;;11.30;6.10;;;;;;;13.17;100.00;100662.59;107118;1282;74470;-89
2023/04/29 10:12:39;;;;;;;4.80;2.60;;;;;;;13.17;100.00;100658.90;107132;1283;58371;-88
2023/04/29 10:15:32;;;;;;;2.50;1.70;;;;;;;13.14;100.00;100660.23;107127;1283;72414;-87
2023/04/29 10:18:16;;;;;;;5.80;2.00;;;;;;;13.14;100.00;100658.27;107097;1283;60474;-88
2023/04/29 10:20:47;;;;;;;2.10;1.60;;;;;;;13.17;100.00;100659.67;107083;1283;60970;-87
2023/04/29 10:23:14;;;;;;;7.30;2.70;;;;;;;13.12;100.00;100663.58;106565;1282;73604;-88
2023/04/29 10:25:41;;;;;;;5.20;2.50;;;;;;;13.15;100.00;100666.94;107151;1282;74196;-88
2023/04/29 10:28:15;;;;;;;5.10;2.90;;;;;;;13.22;100.00;100674.16;106639;1283;393301;-88
2023/04/29 10:30:43;;;;;;;6.70;4.00;;;;;;;13.24;100.00;100685.48;107075;1283;62671;-88
2023/04/29 10:33:10;;;;;;;7.30;4.40;;;;;;;13.21;100.00;100686.29;107124;1282;60257;-89
2023/04/29 10:35:36;;;;;;;6.00;4.00;;;;;;;13.15;100.00;100693.07;107193;1282;74633;-89
2023/04/29 10:38:11;;;;;;;6.40;3.70;;;;;;;13.19;100.00;100690.62;106908;1285;58382;-89
2023/04/29 10:40:45;;;;;;;5.90;4.00;;;;;;;13.18;100.00;100688.41;107116;1282;72547;-89
2023/04/29 10:43:11;;;;;;;5.40;3.30;;;;;;;13.23;100.00;100689.10;107084;1282;61557;-89
2023/04/29 10:45:37;;;;;;;8.30;3.70;;;;;;;13.20;100.00;100691.81;107112;1282;58271;-89
2023/04/29 10:48:07;;;;;;;4.50;3.00;;;;;;;13.11;100.00;100694.98;106765;1283;58229;-89
2023/04/29 10:50:58;;;;;;;11.20;3.50;;;;;;;13.11;100.00;100705.96;107115;1282;74061;-89
2023/04/29 10:53:23;;;;;;;7.40;3.60;;;;;;;13.10;100.00;100710.56;107130;1282;73535;-89
2023/04/29 10:55:58;;;;;;;10.20;4.70;;;;;;;13.07;100.00;100710.72;107154;1282;58291;-90
2023/04/29 10:58:40;;;;;;;5.90;3.80;;;;;;;13.05;100.00;100715.88;107101;1282;60099;-90
2023/04/29 11:01:09;;;;;;;9.20;5.60;;;;;;;13.04;100.00;100717.77;107156;1283;73666;-89
2023/04/29 11:03:49;;;;;;;10.70;5.90;;;;;;;13.10;100.00;100720.63;107147;1283;74292;-87
2023/04/29 11:06:15;;;;;;;12.30;5.10;;;;;;;13.19;100.00;100713.68;107110;1282;72506;-89
2023/04/29 11:08:42;;;;;;;8.80;5.20;;;;;;;13.20;100.00;100713.62;107129;1283;58233;-89
2023/04/29 11:11:08;;;;;;;9.20;6.00;;;;;;;13.22;100.00;100722.50;106842;1283;58281;-89
2023/04/29 11:13:46;;;;;;;8.40;4.80;;;;;;;13.30;100.00;100726.90;107149;1282;58185;-90